createdAt,value
2018-06-19T00:02:05.469Z,97403.42
2018-06-19T00:05:30.937Z,97398.27
2018-06-19T00:08:55.556Z,97401.27
2018-06-19T00:12:20.197Z,97388.14
2018-06-19T00:15:44.898Z,97388.69
2018-06-19T00:19:10.118Z,97390.17
2018-06-19T00:22:34.736Z,97390.05
2018-06-19T00:25:59.428Z,97397.13
2018-06-19T00:29:23.773Z,97393.98
2018-06-19T00:32:48.468Z,97389.88
2018-06-19T00:36:13.085Z,97391.23
2018-06-19T00:39:37.763Z,97388.14
2018-06-19T00:43:02.466Z,97395.45
2018-06-19T00:46:28.517Z,97400.88
2018-06-19T00:49:53.128Z,97398.47
2018-06-19T00:53:17.800Z,97390.34
2018-06-19T00:56:54.131Z,97393.11
2018-06-19T01:00:18.732Z,97387.86
2018-06-19T01:03:43.317Z,97391.21
2018-06-19T01:07:08.246Z,97397.24
2018-06-19T01:10:32.902Z,97392.61
2018-06-19T01:13:57.507Z,97393.58
2018-06-19T01:17:22.108Z,97404.40
2018-06-19T01:20:46.880Z,97406.94
2018-06-19T01:24:11.526Z,97410.30
2018-06-19T01:27:35.814Z,97406.31
2018-06-19T01:31:00.427Z,97412.78
2018-06-19T01:34:26.408Z,97413.42
2018-06-19T01:37:50.977Z,97409.73
2018-06-19T01:41:15.554Z,97417.07
2018-06-19T01:44:40.201Z,97414.24
2018-06-19T01:48:04.840Z,97420.41
2018-06-19T01:51:29.430Z,97418.50
2018-06-19T01:54:54.012Z,97419.42
2018-06-19T01:58:18.583Z,97426.28
2018-06-19T02:01:43.157Z,97428.66
2018-06-19T02:05:07.795Z,97439.25
2018-06-19T02:08:32.429Z,97434.02
2018-06-19T02:11:57.076Z,97434.41
2018-06-19T02:15:21.685Z,97433.89
2018-06-19T02:18:46.316Z,97441.33
2018-06-19T02:22:11.028Z,97447.64
2018-06-19T02:25:35.323Z,97446.38
2018-06-19T02:29:00.039Z,97448.64
2018-06-19T02:32:24.660Z,97444.09
2018-06-19T02:35:49.394Z,97438.14
2018-06-19T02:39:14.196Z,97444.47
2018-06-19T02:42:38.890Z,97444.74
2018-06-19T02:46:03.544Z,97446.28
2018-06-19T02:49:27.835Z,97459.54
2018-06-19T02:52:52.402Z,97452.63
2018-06-19T02:56:17.025Z,97463.09
2018-06-19T02:59:41.618Z,97462.24
2018-06-19T03:03:06.340Z,97472.36
2018-06-19T03:06:30.978Z,97470.21
2018-06-19T03:09:55.855Z,97461.42
2018-06-19T03:13:20.436Z,97467.22
2018-06-19T03:16:45.037Z,97464.20
2018-06-19T03:20:09.730Z,97467.59
2018-06-19T03:23:34.330Z,97475.26
2018-06-19T03:26:58.649Z,97471.84
2018-06-19T03:30:23.394Z,97478.01
2018-06-19T03:33:47.894Z,97480.52
2018-06-19T03:37:12.175Z,97484.36
2018-06-19T03:40:36.738Z,97486.42
2018-06-19T03:44:01.316Z,97484.55
2018-06-19T03:47:26.018Z,97480.45
2018-06-19T03:50:50.615Z,97484.27
2018-06-19T03:54:15.217Z,97485.48
2018-06-19T03:57:39.860Z,97488.48
2018-06-19T04:01:04.556Z,97490.86
2018-06-19T04:04:29.246Z,97493.37
2018-06-19T04:07:53.715Z,97497.81
2018-06-19T04:11:18.377Z,97501.41
2018-06-19T04:14:43.049Z,97500.66
2018-06-19T04:18:07.687Z,97501.84
2018-06-19T04:21:32.411Z,97500.01
2018-06-19T04:24:57.652Z,97498.22
2018-06-19T04:28:22.315Z,97499.73
2018-06-19T04:31:46.911Z,97503.11
2018-06-19T04:35:11.514Z,97502.53
2018-06-19T04:38:36.178Z,97501.69
2018-06-19T04:42:00.825Z,97506.07
2018-06-19T04:45:25.456Z,97507.19
2018-06-19T04:48:50.078Z,97516.45
2018-06-19T04:52:14.681Z,97515.52
2018-06-19T04:55:39.311Z,97521.96
2018-06-19T04:59:03.975Z,97524.96
2018-06-19T05:02:28.631Z,97529.61
2018-06-19T05:05:53.307Z,97525.34
2018-06-19T05:09:17.935Z,97533.94
2018-06-19T05:12:42.527Z,97529.55
2018-06-19T05:16:06.805Z,97520.64
2018-06-19T05:19:31.555Z,97524.65
2018-06-19T05:22:56.163Z,97533.14
2018-06-19T05:26:20.762Z,97532.63
2018-06-19T05:29:45.386Z,97539.30
2018-06-19T05:33:09.986Z,97541.77
2018-06-19T05:36:34.671Z,97545.61
2018-06-19T05:39:59.354Z,97551.92
2018-06-19T05:43:23.988Z,97547.46
2018-06-19T05:46:48.637Z,97538.56
2018-06-19T05:50:13.271Z,97538.15
2018-06-19T05:53:37.562Z,97536.59
2018-06-19T05:57:01.957Z,97547.25
2018-06-19T06:00:26.232Z,97544.05
2018-06-19T06:03:50.928Z,97546.04
2018-06-19T06:07:15.641Z,97544.13
2018-06-19T06:10:40.276Z,97548.77
2018-06-19T06:14:04.547Z,97545.77
2018-06-19T06:17:29.160Z,97549.19
2018-06-19T06:20:53.738Z,97555.08
2018-06-19T06:24:18.383Z,97551.98
2018-06-19T06:27:42.998Z,97552.71
2018-06-19T06:31:07.406Z,97554.61
2018-06-19T06:34:32.054Z,97547.20
2018-06-19T06:37:56.862Z,97556.19
2018-06-19T06:41:21.480Z,97539.17
2018-06-19T06:44:46.143Z,97548.48
2018-06-19T06:48:10.863Z,97545.62
2018-06-19T06:51:35.576Z,97552.48
2018-06-19T06:55:00.229Z,97553.38
2018-06-19T06:58:25.116Z,97545.59
2018-06-19T07:01:49.810Z,97550.08
2018-06-19T07:05:14.509Z,97553.11
2018-06-19T07:08:39.103Z,97554.05
2018-06-19T07:12:03.730Z,97559.05
2018-06-19T07:15:28.325Z,97560.77
2018-06-19T07:18:53.023Z,97550.11
2018-06-19T07:22:17.645Z,97547.95
2018-06-19T07:25:42.267Z,97551.41
2018-06-19T07:29:06.938Z,97552.26
2018-06-19T07:32:31.558Z,97548.33
2018-06-19T07:35:56.222Z,97553.06
2018-06-19T07:39:20.866Z,97549.91
2018-06-19T07:42:45.533Z,97548.45
2018-06-19T07:46:09.886Z,97543.80
2018-06-19T07:49:34.508Z,97539.92
2018-06-19T07:52:58.780Z,97537.45
2018-06-19T07:56:23.392Z,97535.80
2018-06-19T07:59:48.110Z,97538.67
2018-06-19T08:03:12.783Z,97535.05
2018-06-19T08:06:37.336Z,97527.38
2018-06-19T08:10:01.938Z,97524.62
2018-06-19T08:13:26.590Z,97522.88
2018-06-19T08:16:50.970Z,97523.92
2018-06-19T08:20:15.672Z,97516.02
2018-06-19T08:23:40.466Z,97515.91
2018-06-19T08:27:05.163Z,97507.73
2018-06-19T08:30:29.917Z,97505.52
2018-06-19T08:33:55.381Z,97511.22
2018-06-19T08:37:26.424Z,97501.37
2018-06-19T08:40:52.657Z,97497.05
2018-06-19T08:44:18.408Z,97495.97
2018-06-19T08:47:43.966Z,97498.70
2018-06-19T08:51:09.373Z,97491.57
2018-06-19T08:54:35.132Z,97486.03
2018-06-19T08:58:00.692Z,97484.66
2018-06-19T09:01:28.932Z,97481.72
2018-06-19T09:04:54.171Z,97477.90
2018-06-19T09:08:21.710Z,97464.78
2018-06-19T09:11:47.264Z,97471.11
2018-06-19T09:15:16.265Z,97470.48
2018-06-19T09:18:45.996Z,97475.06
2018-06-19T09:22:12.137Z,97478.69
2018-06-19T09:25:36.831Z,97483.36
2018-06-19T09:29:01.511Z,97480.30
2018-06-19T09:32:26.277Z,97471.98
2018-06-19T09:35:50.958Z,97471.27
2018-06-19T09:39:15.668Z,97479.72
2018-06-19T09:42:40.432Z,97479.78
2018-06-19T09:46:05.186Z,97474.37
2018-06-19T09:49:29.842Z,97475.39
2018-06-19T09:52:54.528Z,97477.45
2018-06-19T09:56:19.534Z,97477.16
2018-06-19T09:59:44.424Z,97476.63
2018-06-19T10:03:09.288Z,97471.94
2018-06-19T10:06:33.925Z,97471.08
2018-06-19T10:09:58.213Z,97469.64
2018-06-19T10:13:22.980Z,97464.08
2018-06-19T10:16:47.373Z,97467.92
2018-06-19T10:20:12.059Z,97468.64
2018-06-19T10:25:05.703Z,97468.11
2018-06-19T10:28:30.345Z,97475.84
2018-06-19T10:31:54.997Z,97458.55
2018-06-19T10:35:19.618Z,97463.21
2018-06-19T10:38:44.330Z,97450.77
2018-06-19T10:42:08.974Z,97455.76
2018-06-19T10:45:35.176Z,97451.02
2018-06-19T10:48:59.867Z,97449.63
2018-06-19T10:52:24.552Z,97445.92
2018-06-19T10:55:49.143Z,97446.90
2018-06-19T10:59:13.732Z,97449.53
2018-06-19T11:02:38.404Z,97453.67
2018-06-19T11:06:03.064Z,97457.23
2018-06-19T11:09:27.831Z,97451.88
2018-06-19T11:12:52.430Z,97449.57
2018-06-19T11:16:17.110Z,97446.73
2018-06-19T11:19:41.753Z,97440.34
2018-06-19T11:23:06.429Z,97434.08
2018-06-19T11:26:31.084Z,97426.70
2018-06-19T11:29:55.748Z,97428.42
2018-06-19T11:33:20.468Z,97425.47
2018-06-19T11:36:45.134Z,97421.53
2018-06-19T11:40:09.828Z,97427.47
2018-06-19T11:43:34.434Z,97420.19
2018-06-19T11:46:59.298Z,97414.70
2018-06-19T11:50:23.960Z,97419.40
2018-06-19T11:53:48.574Z,97417.84
2018-06-19T11:57:13.202Z,97421.12
2018-06-19T12:00:37.986Z,97418.99
2018-06-19T12:04:02.253Z,97416.97
2018-06-19T12:07:30.697Z,97422.53
2018-06-19T12:10:55.312Z,97415.33
2018-06-19T12:14:19.929Z,97411.30
2018-06-19T12:17:44.224Z,97402.05
2018-06-19T12:21:08.531Z,97394.80
2018-06-19T12:24:33.120Z,97396.55
2018-06-19T12:27:57.404Z,97388.34
2018-06-19T12:31:21.997Z,97391.38
2018-06-19T12:34:46.705Z,97386.63
2018-06-19T12:38:11.307Z,97387.28
2018-06-19T12:41:42.774Z,97383.78
2018-06-19T12:45:07.278Z,97382.45
2018-06-19T12:48:31.890Z,97375.95
2018-06-19T12:52:13.887Z,97379.98
2018-06-19T12:55:55.871Z,97381.13
2018-06-19T12:59:20.510Z,97385.22
2018-06-19T13:04:01.977Z,97383.94
2018-06-19T13:07:27.679Z,97369.83
2018-06-19T13:10:52.501Z,97371.16
2018-06-19T13:14:34.180Z,97363.27
2018-06-19T13:18:16.081Z,97367.66
2018-06-19T13:21:40.872Z,97364.70
2018-06-19T13:25:05.540Z,97357.20
2018-06-19T13:29:52.568Z,97357.28
2018-06-19T13:33:17.248Z,97353.56
2018-06-19T13:36:43.136Z,97348.06
2018-06-19T13:41:27.003Z,97348.09
2018-06-19T13:45:00.462Z,97345.73
2018-06-19T13:48:24.790Z,97350.83
2018-06-19T13:51:49.440Z,97348.48
2018-06-19T13:57:40.680Z,97336.64
2018-06-19T14:01:05.499Z,97338.48
2018-06-19T14:04:30.276Z,97331.53
2018-06-19T14:08:16.304Z,97331.04
2018-06-19T14:12:03.467Z,97331.06
2018-06-19T14:15:29.694Z,97328.91
2018-06-19T14:18:54.376Z,97327.30
2018-06-19T14:22:18.992Z,97327.09
2018-06-19T14:25:43.240Z,97320.77
2018-06-19T14:29:07.945Z,97317.44
2018-06-19T14:32:32.560Z,97315.89
2018-06-19T14:35:57.232Z,97314.05
2018-06-19T14:39:22.017Z,97317.78
2018-06-19T14:42:46.312Z,97313.08
2018-06-19T14:46:10.956Z,97319.73
2018-06-19T14:49:35.603Z,97309.00
2018-06-19T14:52:59.922Z,97311.36
2018-06-19T14:56:24.494Z,97309.11
2018-06-19T14:59:49.135Z,97315.72
2018-06-19T15:03:13.783Z,97322.56
2018-06-19T15:06:38.427Z,97307.36
2018-06-19T15:10:03.159Z,97304.16
2018-06-19T15:13:27.826Z,97305.48
2018-06-19T15:16:52.538Z,97300.47
2018-06-19T15:20:17.040Z,97304.52
2018-06-19T15:23:41.321Z,97305.46
2018-06-19T15:27:05.996Z,97303.65
2018-06-19T15:30:30.379Z,97305.77
2018-06-19T15:33:55.133Z,97292.48
2018-06-19T15:37:19.965Z,97294.52
2018-06-19T15:40:45.159Z,97297.88
2018-06-19T15:44:09.882Z,97298.50
2018-06-19T15:47:34.597Z,97293.89
2018-06-19T15:50:58.938Z,97285.50
2018-06-19T15:54:23.950Z,97294.39
2018-06-19T15:57:48.604Z,97295.00
2018-06-19T16:01:13.297Z,97284.61
2018-06-19T16:04:37.947Z,97291.05
2018-06-19T16:08:08.080Z,97288.37
2018-06-19T16:11:32.718Z,97285.73
2018-06-19T16:14:57.484Z,97280.05
2018-06-19T16:18:22.185Z,97282.27
2018-06-19T16:21:46.886Z,97289.45
2018-06-19T16:25:11.750Z,97283.02
2018-06-19T16:28:36.378Z,97288.23
2018-06-19T16:32:01.009Z,97279.69
2018-06-19T16:35:25.378Z,97276.30
2018-06-19T16:38:50.050Z,97287.50
2018-06-19T16:42:14.747Z,97285.37
2018-06-19T16:45:39.396Z,97267.48
2018-06-19T16:49:04.174Z,97282.86
2018-06-19T16:52:28.975Z,97278.91
2018-06-19T16:55:58.769Z,97275.82
2018-06-19T16:59:24.031Z,97277.86
2018-06-19T17:02:51.292Z,97275.56
2018-06-19T17:06:17.700Z,97269.08
2018-06-19T17:09:45.159Z,97269.25
2018-06-19T17:13:22.416Z,97266.18
2018-06-19T17:16:47.304Z,97267.35
2018-06-19T17:20:15.311Z,97263.07
2018-06-19T17:23:41.686Z,97264.78
2018-06-19T17:27:08.018Z,97254.20
2018-06-19T17:30:44.268Z,97255.51
2018-06-19T17:34:09.313Z,97258.48
2018-06-19T17:37:34.065Z,97261.09
2018-06-19T17:40:59.621Z,97257.36
2018-06-19T17:44:25.076Z,97254.01
2018-06-19T17:47:50.669Z,97255.70
2018-06-19T17:51:15.407Z,97249.69
2018-06-19T17:54:40.997Z,97261.23
2018-06-19T17:58:05.863Z,97263.20
2018-06-19T18:01:31.457Z,97254.27
2018-06-19T18:04:55.856Z,97261.29
2018-06-19T18:08:22.812Z,97256.27
2018-06-19T18:11:47.543Z,97254.92
2018-06-19T18:15:12.484Z,97256.48
2018-06-19T18:18:38.187Z,97260.42
2018-06-19T18:22:03.038Z,97257.13
2018-06-19T18:25:27.915Z,97256.75
2018-06-19T18:28:53.575Z,97258.34
2018-06-19T18:32:19.308Z,97251.73
2018-06-19T18:35:44.868Z,97250.72
2018-06-19T18:39:10.869Z,97240.70
2018-06-19T18:42:35.704Z,97246.88
2018-06-19T18:46:01.319Z,97248.14
2018-06-19T18:49:26.609Z,97249.73
2018-06-19T18:52:51.428Z,97248.90
2018-06-19T18:56:16.724Z,97247.93
2018-06-19T18:59:42.164Z,97241.97
2018-06-19T19:03:08.102Z,97249.01
2018-06-19T19:06:33.709Z,97255.83
2018-06-19T19:10:04.293Z,97243.67
2018-06-19T19:13:29.604Z,97245.56
2018-06-19T19:16:59.476Z,97245.53
2018-06-19T19:20:24.282Z,97242.80
2018-06-19T19:23:50.039Z,97244.25
2018-06-19T19:27:20.763Z,97237.75
2018-06-19T19:30:45.519Z,97240.27
2018-06-19T19:34:09.923Z,97244.65
2018-06-19T19:37:40.908Z,97247.66
2018-06-19T19:41:05.731Z,97247.38
2018-06-19T19:44:30.442Z,97245.00
2018-06-19T19:48:00.554Z,97243.99
2018-06-19T19:51:25.662Z,97245.25
2018-06-19T19:54:50.382Z,97251.44
2018-06-19T19:58:22.756Z,97252.90
2018-06-19T20:01:47.661Z,97253.49
2018-06-19T20:06:00.611Z,97253.97
2018-06-19T20:09:26.031Z,97255.38
2018-06-19T20:21:49.527Z,97254.96
2018-06-19T20:25:14.217Z,97254.64
2018-06-19T20:28:38.918Z,97252.55
2018-06-19T20:32:03.948Z,97248.52
2018-06-19T20:35:28.941Z,97251.76
2018-06-19T20:38:53.650Z,97253.50
2018-06-19T20:42:18.393Z,97253.91
2018-06-19T20:45:43.088Z,97243.59
2018-06-19T20:49:07.416Z,97242.80
2018-06-19T20:52:32.045Z,97242.54
2018-06-19T20:55:56.797Z,97246.46
2018-06-19T20:59:21.444Z,97246.08
2018-06-19T21:02:46.053Z,97243.30
2018-06-19T21:06:10.511Z,97250.64
2018-06-19T21:09:34.850Z,97241.87
2018-06-19T21:12:59.520Z,97249.48
2018-06-19T21:16:24.219Z,97255.70
2018-06-19T21:19:48.708Z,97255.41
2018-06-19T21:23:13.504Z,97248.63
2018-06-19T21:26:38.067Z,97247.42
2018-06-19T21:30:02.731Z,97252.91
2018-06-19T21:33:27.537Z,97251.77
2018-06-19T21:36:52.211Z,97250.25
2018-06-19T21:40:16.609Z,97252.30
2018-06-19T21:43:41.212Z,97254.19
2018-06-19T21:47:05.820Z,97251.72
2018-06-19T21:50:30.435Z,97246.91
2018-06-19T21:53:55.097Z,97243.94
2018-06-19T21:57:19.720Z,97243.53
2018-06-19T22:00:44.085Z,97246.47
2018-06-19T22:04:08.722Z,97247.83
2018-06-19T22:07:33.948Z,97240.66
2018-06-19T22:10:58.639Z,97239.52
2018-06-19T22:14:23.241Z,97242.84
2018-06-19T22:17:48.967Z,97241.54
2018-06-19T22:21:13.680Z,97237.44
2018-06-19T22:24:38.326Z,97235.45
2018-06-19T22:28:03.174Z,97237.02
2018-06-19T22:31:27.912Z,97233.05
2018-06-19T22:34:53.421Z,97231.20
2018-06-19T22:38:18.095Z,97231.65
2018-06-19T22:41:42.734Z,97223.17
2018-06-19T22:45:07.684Z,97220.92
2018-06-19T22:48:32.447Z,97225.32
2018-06-19T22:51:57.066Z,97224.48
2018-06-19T22:55:21.854Z,97231.20
2018-06-19T22:58:47.467Z,97230.69
2018-06-19T23:02:12.171Z,97228.67
2018-06-19T23:05:37.468Z,97238.25
2018-06-19T23:09:02.288Z,97233.78
2018-06-19T23:12:26.976Z,97228.80
2018-06-19T23:15:51.645Z,97233.45
2018-06-19T23:19:16.320Z,97230.45
2018-06-19T23:22:40.978Z,97235.56
2018-06-19T23:26:05.599Z,97224.96
2018-06-19T23:29:30.236Z,97229.98
2018-06-19T23:32:54.849Z,97228.66
2018-06-19T23:36:19.636Z,97229.85
2018-06-19T23:39:44.220Z,97239.63
2018-06-19T23:43:08.815Z,97232.84
2018-06-19T23:46:33.472Z,97226.73
2018-06-19T23:49:58.170Z,97226.87
2018-06-19T23:53:22.880Z,97226.09
2018-06-19T23:56:47.532Z,97224.26
